sensor_id;sensor_type;location;lat;lon;timestamp;P1;durP1;ratioP1;P2;durP2;ratioP2
44456;SDS011;30159;49.316;8.558;2022-12-18T00:00:04;21.97;;;11.50;;
44456;SDS011;30159;49.316;8.558;2022-12-18T00:02:31;21.07;;;9.87;;
44456;SDS011;30159;49.316;8.558;2022-12-18T00:04:58;18.20;;;8.27;;
44456;SDS011;30159;49.316;8.558;2022-12-18T00:07:24;23.23;;;9.10;;
44456;SDS011;30159;49.316;8.558;2022-12-18T00:09:51;22.97;;;10.73;;
44456;SDS011;30159;49.316;8.558;2022-12-18T00:12:17;19.83;;;10.30;;
44456;SDS011;30159;49.316;8.558;2022-12-18T00:14:45;28.30;;;10.70;;
44456;SDS011;30159;49.316;8.558;2022-12-18T00:17:12;19.10;;;8.00;;
44456;SDS011;30159;49.316;8.558;2022-12-18T00:19:38;31.63;;;11.67;;
44456;SDS011;30159;49.316;8.558;2022-12-18T00:22:05;20.40;;;8.87;;
44456;SDS011;30159;49.316;8.558;2022-12-18T00:24:32;31.47;;;11.90;;
44456;SDS011;30159;49.316;8.558;2022-12-18T00:26:58;22.70;;;9.67;;
44456;SDS011;30159;49.316;8.558;2022-12-18T00:29:25;29.93;;;11.27;;
44456;SDS011;30159;49.316;8.558;2022-12-18T00:31:53;21.07;;;8.90;;
44456;SDS011;30159;49.316;8.558;2022-12-18T00:34:20;33.20;;;12.07;;
44456;SDS011;30159;49.316;8.558;2022-12-18T00:36:47;24.70;;;8.10;;
44456;SDS011;30159;49.316;8.558;2022-12-18T00:39:14;25.43;;;10.73;;
44456;SDS011;30159;49.316;8.558;2022-12-18T00:41:40;17.87;;;8.20;;
44456;SDS011;30159;49.316;8.558;2022-12-18T00:44:24;24.20;;;9.67;;
44456;SDS011;30159;49.316;8.558;2022-12-18T00:46:51;22.87;;;10.23;;
44456;SDS011;30159;49.316;8.558;2022-12-18T00:49:19;25.93;;;9.77;;
44456;SDS011;30159;49.316;8.558;2022-12-18T00:51:46;20.27;;;10.63;;
44456;SDS011;30159;49.316;8.558;2022-12-18T00:54:13;22.30;;;9.37;;
44456;SDS011;30159;49.316;8.558;2022-12-18T00:56:40;24.30;;;9.57;;
44456;SDS011;30159;49.316;8.558;2022-12-18T00:59:06;39.70;;;13.33;;
44456;SDS011;30159;49.316;8.558;2022-12-18T01:01:33;28.67;;;9.33;;
44456;SDS011;30159;49.316;8.558;2022-12-18T01:04:00;27.03;;;12.20;;
44456;SDS011;30159;49.316;8.558;2022-12-18T01:06:29;30.83;;;10.43;;
44456;SDS011;30159;49.316;8.558;2022-12-18T01:08:56;29.07;;;8.77;;
44456;SDS011;30159;49.316;8.558;2022-12-18T01:11:23;37.27;;;11.37;;
44456;SDS011;30159;49.316;8.558;2022-12-18T01:13:51;31.33;;;10.50;;
44456;SDS011;30159;49.316;8.558;2022-12-18T01:16:18;35.73;;;13.37;;
44456;SDS011;30159;49.316;8.558;2022-12-18T01:18:44;17.03;;;7.63;;
44456;SDS011;30159;49.316;8.558;2022-12-18T01:21:12;23.17;;;9.87;;
44456;SDS011;30159;49.316;8.558;2022-12-18T01:23:44;30.60;;;10.50;;
44456;SDS011;30159;49.316;8.558;2022-12-18T01:26:11;18.87;;;7.80;;
44456;SDS011;30159;49.316;8.558;2022-12-18T01:28:39;24.53;;;10.30;;
44456;SDS011;30159;49.316;8.558;2022-12-18T01:31:10;33.83;;;11.53;;
44456;SDS011;30159;49.316;8.558;2022-12-18T01:33:41;29.20;;;9.57;;
44456;SDS011;30159;49.316;8.558;2022-12-18T01:36:08;21.53;;;10.13;;
44456;SDS011;30159;49.316;8.558;2022-12-18T01:38:40;22.00;;;9.90;;
44456;SDS011;30159;49.316;8.558;2022-12-18T01:41:07;46.03;;;10.97;;
44456;SDS011;30159;49.316;8.558;2022-12-18T01:43:42;24.27;;;10.43;;
44456;SDS011;30159;49.316;8.558;2022-12-18T01:46:14;14.97;;;6.77;;
44456;SDS011;30159;49.316;8.558;2022-12-18T01:48:42;32.23;;;11.30;;
44456;SDS011;30159;49.316;8.558;2022-12-18T01:51:11;30.30;;;10.60;;
44456;SDS011;30159;49.316;8.558;2022-12-18T01:53:39;35.00;;;10.20;;
44456;SDS011;30159;49.316;8.558;2022-12-18T01:56:08;13.90;;;6.17;;
44456;SDS011;30159;49.316;8.558;2022-12-18T01:58:41;25.67;;;9.10;;
44456;SDS011;30159;49.316;8.558;2022-12-18T02:01:14;51.83;;;15.00;;
44456;SDS011;30159;49.316;8.558;2022-12-18T02:03:41;22.27;;;10.20;;
44456;SDS011;30159;49.316;8.558;2022-12-18T02:06:10;41.70;;;13.93;;
44456;SDS011;30159;49.316;8.558;2022-12-18T02:08:43;31.37;;;10.90;;
44456;SDS011;30159;49.316;8.558;2022-12-18T02:11:18;30.40;;;12.30;;
44456;SDS011;30159;49.316;8.558;2022-12-18T02:13:53;25.60;;;10.13;;
44456;SDS011;30159;49.316;8.558;2022-12-18T02:16:29;22.00;;;10.10;;
44456;SDS011;30159;49.316;8.558;2022-12-18T02:19:06;23.13;;;9.87;;
44456;SDS011;30159;49.316;8.558;2022-12-18T02:21:49;30.67;;;10.60;;
44456;SDS011;30159;49.316;8.558;2022-12-18T02:24:28;33.63;;;12.23;;
44456;SDS011;30159;49.316;8.558;2022-12-18T02:27:02;37.17;;;12.73;;
44456;SDS011;30159;49.316;8.558;2022-12-18T02:29:32;36.80;;;12.80;;
44456;SDS011;30159;49.316;8.558;2022-12-18T02:32:03;35.43;;;13.67;;
44456;SDS011;30159;49.316;8.558;2022-12-18T02:34:32;47.50;;;14.80;;
44456;SDS011;30159;49.316;8.558;2022-12-18T02:37:04;14.23;;;6.70;;
44456;SDS011;30159;49.316;8.558;2022-12-18T02:39:36;30.43;;;12.27;;
44456;SDS011;30159;49.316;8.558;2022-12-18T02:42:06;26.70;;;11.00;;
44456;SDS011;30159;49.316;8.558;2022-12-18T02:44:33;30.67;;;13.30;;
44456;SDS011;30159;49.316;8.558;2022-12-18T02:46:59;29.93;;;13.70;;
44456;SDS011;30159;49.316;8.558;2022-12-18T02:49:29;34.40;;;12.27;;
44456;SDS011;30159;49.316;8.558;2022-12-18T02:52:05;30.93;;;12.47;;
44456;SDS011;30159;49.316;8.558;2022-12-18T02:54:39;22.30;;;10.87;;
44456;SDS011;30159;49.316;8.558;2022-12-18T02:57:16;24.03;;;10.10;;
44456;SDS011;30159;49.316;8.558;2022-12-18T02:59:52;26.60;;;10.77;;
44456;SDS011;30159;49.316;8.558;2022-12-18T03:02:25;28.47;;;9.57;;
44456;SDS011;30159;49.316;8.558;2022-12-18T03:04:59;38.17;;;13.10;;
44456;SDS011;30159;49.316;8.558;2022-12-18T03:07:33;22.63;;;11.47;;
44456;SDS011;30159;49.316;8.558;2022-12-18T03:10:04;37.83;;;11.73;;
44456;SDS011;30159;49.316;8.558;2022-12-18T03:12:36;33.93;;;12.13;;
44456;SDS011;30159;49.316;8.558;2022-12-18T03:15:07;45.60;;;13.47;;
44456;SDS011;30159;49.316;8.558;2022-12-18T03:17:36;28.63;;;11.40;;
44456;SDS011;30159;49.316;8.558;2022-12-18T03:20:08;28.40;;;10.57;;
44456;SDS011;30159;49.316;8.558;2022-12-18T03:22:40;29.60;;;12.13;;
44456;SDS011;30159;49.316;8.558;2022-12-18T03:25:11;29.43;;;11.00;;
44456;SDS011;30159;49.316;8.558;2022-12-18T03:27:43;39.90;;;11.30;;
44456;SDS011;30159;49.316;8.558;2022-12-18T03:30:14;29.47;;;10.57;;
44456;SDS011;30159;49.316;8.558;2022-12-18T03:32:43;39.30;;;11.20;;
44456;SDS011;30159;49.316;8.558;2022-12-18T03:35:18;27.83;;;11.60;;
44456;SDS011;30159;49.316;8.558;2022-12-18T03:37:47;31.67;;;10.17;;
44456;SDS011;30159;49.316;8.558;2022-12-18T03:40:14;43.70;;;14.00;;
44456;SDS011;30159;49.316;8.558;2022-12-18T03:42:44;31.40;;;13.10;;
44456;SDS011;30159;49.316;8.558;2022-12-18T03:45:19;20.10;;;11.00;;
44456;SDS011;30159;49.316;8.558;2022-12-18T03:47:52;25.30;;;12.13;;
44456;SDS011;30159;49.316;8.558;2022-12-18T03:50:27;43.07;;;14.10;;
44456;SDS011;30159;49.316;8.558;2022-12-18T03:53:01;35.70;;;12.57;;
44456;SDS011;30159;49.316;8.558;2022-12-18T03:55:39;23.50;;;9.67;;
44456;SDS011;30159;49.316;8.558;2022-12-18T03:58:08;33.57;;;11.90;;
44456;SDS011;30159;49.316;8.558;2022-12-18T04:00:37;26.83;;;11.30;;
44456;SDS011;30159;49.316;8.558;2022-12-18T04:03:04;41.27;;;11.67;;
44456;SDS011;30159;49.316;8.558;2022-12-18T04:05:33;34.10;;;12.00;;
44456;SDS011;30159;49.316;8.558;2022-12-18T04:08:02;30.60;;;13.10;;
44456;SDS011;30159;49.316;8.558;2022-12-18T04:10:29;22.83;;;9.63;;
44456;SDS011;30159;49.316;8.558;2022-12-18T04:12:56;28.43;;;10.70;;
44456;SDS011;30159;49.316;8.558;2022-12-18T04:15:25;29.90;;;11.77;;
44456;SDS011;30159;49.316;8.558;2022-12-18T04:17:52;24.30;;;10.00;;
44456;SDS011;30159;49.316;8.558;2022-12-18T04:20:18;30.30;;;11.00;;
44456;SDS011;30159;49.316;8.558;2022-12-18T04:22:45;29.80;;;11.67;;
44456;SDS011;30159;49.316;8.558;2022-12-18T04:25:12;24.70;;;10.20;;
44456;SDS011;30159;49.316;8.558;2022-12-18T04:27:39;27.17;;;12.77;;
44456;SDS011;30159;49.316;8.558;2022-12-18T04:30:06;26.27;;;11.40;;
44456;SDS011;30159;49.316;8.558;2022-12-18T04:32:34;26.63;;;9.20;;
44456;SDS011;30159;49.316;8.558;2022-12-18T04:35:01;25.23;;;13.07;;
44456;SDS011;30159;49.316;8.558;2022-12-18T04:37:29;22.30;;;9.80;;
44456;SDS011;30159;49.316;8.558;2022-12-18T04:39:55;27.27;;;11.90;;
44456;SDS011;30159;49.316;8.558;2022-12-18T04:42:22;39.17;;;11.13;;
44456;SDS011;30159;49.316;8.558;2022-12-18T04:44:48;30.43;;;10.87;;
44456;SDS011;30159;49.316;8.558;2022-12-18T04:47:15;27.43;;;12.87;;
44456;SDS011;30159;49.316;8.558;2022-12-18T04:49:43;30.80;;;11.13;;
44456;SDS011;30159;49.316;8.558;2022-12-18T04:52:09;23.60;;;9.17;;
44456;SDS011;30159;49.316;8.558;2022-12-18T04:54:36;28.90;;;11.23;;
44456;SDS011;30159;49.316;8.558;2022-12-18T04:57:02;33.87;;;11.73;;
44456;SDS011;30159;49.316;8.558;2022-12-18T04:59:29;24.63;;;8.53;;
44456;SDS011;30159;49.316;8.558;2022-12-18T05:01:55;25.50;;;9.30;;
44456;SDS011;30159;49.316;8.558;2022-12-18T05:04:22;21.30;;;7.13;;
44456;SDS011;30159;49.316;8.558;2022-12-18T05:06:50;19.77;;;9.70;;
44456;SDS011;30159;49.316;8.558;2022-12-18T05:09:16;24.90;;;11.40;;
44456;SDS011;30159;49.316;8.558;2022-12-18T05:11:43;25.07;;;10.30;;
44456;SDS011;30159;49.316;8.558;2022-12-18T05:14:09;28.27;;;9.67;;
44456;SDS011;30159;49.316;8.558;2022-12-18T05:16:36;27.33;;;11.93;;
44456;SDS011;30159;49.316;8.558;2022-12-18T05:19:02;26.20;;;10.40;;
44456;SDS011;30159;49.316;8.558;2022-12-18T05:21:29;40.00;;;10.83;;
44456;SDS011;30159;49.316;8.558;2022-12-18T05:23:57;47.97;;;11.23;;
44456;SDS011;30159;49.316;8.558;2022-12-18T05:26:23;19.17;;;7.40;;
44456;SDS011;30159;49.316;8.558;2022-12-18T05:28:50;34.07;;;10.97;;
44456;SDS011;30159;49.316;8.558;2022-12-18T05:31:16;22.80;;;9.47;;
44456;SDS011;30159;49.316;8.558;2022-12-18T05:33:43;22.70;;;8.90;;
44456;SDS011;30159;49.316;8.558;2022-12-18T05:36:10;24.30;;;11.50;;
44456;SDS011;30159;49.316;8.558;2022-12-18T05:38:37;23.80;;;8.67;;
44456;SDS011;30159;49.316;8.558;2022-12-18T05:41:09;21.37;;;11.47;;
44456;SDS011;30159;49.316;8.558;2022-12-18T05:43:36;26.80;;;10.50;;
44456;SDS011;30159;49.316;8.558;2022-12-18T05:46:04;20.60;;;6.30;;
44456;SDS011;30159;49.316;8.558;2022-12-18T05:48:31;16.63;;;6.37;;
44456;SDS011;30159;49.316;8.558;2022-12-18T05:51:02;16.07;;;7.80;;
44456;SDS011;30159;49.316;8.558;2022-12-18T05:53:30;11.97;;;5.90;;
44456;SDS011;30159;49.316;8.558;2022-12-18T05:55:59;13.13;;;4.77;;
44456;SDS011;30159;49.316;8.558;2022-12-18T05:58:28;23.23;;;8.37;;
44456;SDS011;30159;49.316;8.558;2022-12-18T06:00:55;8.30;;;7.10;;
44456;SDS011;30159;49.316;8.558;2022-12-18T06:03:22;19.43;;;8.57;;
44456;SDS011;30159;49.316;8.558;2022-12-18T06:05:49;13.47;;;5.10;;
44456;SDS011;30159;49.316;8.558;2022-12-18T06:08:15;29.80;;;9.80;;
44456;SDS011;30159;49.316;8.558;2022-12-18T06:10:42;14.53;;;6.63;;
44456;SDS011;30159;49.316;8.558;2022-12-18T06:13:16;16.27;;;5.97;;
44456;SDS011;30159;49.316;8.558;2022-12-18T06:15:44;27.33;;;6.90;;
44456;SDS011;30159;49.316;8.558;2022-12-18T06:18:10;22.43;;;8.53;;
44456;SDS011;30159;49.316;8.558;2022-12-18T06:20:37;33.93;;;11.93;;
44456;SDS011;30159;49.316;8.558;2022-12-18T06:23:04;24.77;;;9.93;;
44456;SDS011;30159;49.316;8.558;2022-12-18T06:25:31;20.43;;;9.30;;
44456;SDS011;30159;49.316;8.558;2022-12-18T06:27:58;9.57;;;7.77;;
44456;SDS011;30159;49.316;8.558;2022-12-18T06:30:24;14.80;;;7.13;;
44456;SDS011;30159;49.316;8.558;2022-12-18T06:32:52;18.10;;;10.37;;
44456;SDS011;30159;49.316;8.558;2022-12-18T06:35:19;14.37;;;7.90;;
44456;SDS011;30159;49.316;8.558;2022-12-18T06:37:45;11.63;;;7.07;;
44456;SDS011;30159;49.316;8.558;2022-12-18T06:40:12;14.63;;;6.80;;
44456;SDS011;30159;49.316;8.558;2022-12-18T06:42:38;21.40;;;9.87;;
44456;SDS011;30159;49.316;8.558;2022-12-18T06:45:05;24.60;;;11.03;;
44456;SDS011;30159;49.316;8.558;2022-12-18T06:47:32;22.63;;;10.03;;
44456;SDS011;30159;49.316;8.558;2022-12-18T06:50:00;16.33;;;7.73;;
44456;SDS011;30159;49.316;8.558;2022-12-18T06:52:28;10.20;;;3.93;;
44456;SDS011;30159;49.316;8.558;2022-12-18T06:54:57;9.97;;;4.80;;
44456;SDS011;30159;49.316;8.558;2022-12-18T06:57:23;31.73;;;13.87;;
44456;SDS011;30159;49.316;8.558;2022-12-18T06:59:50;28.57;;;10.93;;
44456;SDS011;30159;49.316;8.558;2022-12-18T07:02:17;27.80;;;12.87;;
44456;SDS011;30159;49.316;8.558;2022-12-18T07:04:43;24.60;;;11.80;;
44456;SDS011;30159;49.316;8.558;2022-12-18T07:07:11;21.73;;;11.63;;
44456;SDS011;30159;49.316;8.558;2022-12-18T07:09:37;27.63;;;9.83;;
44456;SDS011;30159;49.316;8.558;2022-12-18T07:12:04;29.87;;;10.63;;
44456;SDS011;30159;49.316;8.558;2022-12-18T07:14:31;25.70;;;11.70;;
44456;SDS011;30159;49.316;8.558;2022-12-18T07:16:58;28.20;;;15.13;;
44456;SDS011;30159;49.316;8.558;2022-12-18T07:19:24;24.53;;;10.80;;
44456;SDS011;30159;49.316;8.558;2022-12-18T07:21:51;25.37;;;11.50;;
44456;SDS011;30159;49.316;8.558;2022-12-18T07:24:19;20.33;;;8.93;;
44456;SDS011;30159;49.316;8.558;2022-12-18T07:26:45;31.13;;;13.53;;
44456;SDS011;30159;49.316;8.558;2022-12-18T07:29:12;36.83;;;13.47;;
44456;SDS011;30159;49.316;8.558;2022-12-18T07:31:39;14.97;;;6.13;;
44456;SDS011;30159;49.316;8.558;2022-12-18T07:34:09;25.73;;;10.73;;
44456;SDS011;30159;49.316;8.558;2022-12-18T07:36:36;28.73;;;12.90;;
44456;SDS011;30159;49.316;8.558;2022-12-18T07:39:02;16.83;;;8.13;;
44456;SDS011;30159;49.316;8.558;2022-12-18T07:41:30;24.77;;;12.37;;
44456;SDS011;30159;49.316;8.558;2022-12-18T07:43:57;31.17;;;12.20;;
44456;SDS011;30159;49.316;8.558;2022-12-18T07:46:23;10.53;;;6.90;;
44456;SDS011;30159;49.316;8.558;2022-12-18T07:48:52;41.10;;;15.90;;
44456;SDS011;30159;49.316;8.558;2022-12-18T07:51:19;26.93;;;13.67;;
44456;SDS011;30159;49.316;8.558;2022-12-18T07:53:46;27.80;;;13.07;;
44456;SDS011;30159;49.316;8.558;2022-12-18T07:56:13;13.23;;;5.83;;
44456;SDS011;30159;49.316;8.558;2022-12-18T07:58:41;37.07;;;13.10;;
44456;SDS011;30159;49.316;8.558;2022-12-18T08:01:10;22.10;;;11.90;;
44456;SDS011;30159;49.316;8.558;2022-12-18T08:03:38;25.57;;;11.07;;
44456;SDS011;30159;49.316;8.558;2022-12-18T08:06:07;10.97;;;5.83;;
44456;SDS011;30159;49.316;8.558;2022-12-18T08:08:35;20.27;;;9.27;;
44456;SDS011;30159;49.316;8.558;2022-12-18T08:11:02;26.40;;;10.00;;
44456;SDS011;30159;49.316;8.558;2022-12-18T08:13:29;31.23;;;12.87;;
44456;SDS011;30159;49.316;8.558;2022-12-18T08:15:57;15.27;;;8.03;;
44456;SDS011;30159;49.316;8.558;2022-12-18T08:18:24;36.17;;;12.60;;
44456;SDS011;30159;49.316;8.558;2022-12-18T08:20:51;21.10;;;5.80;;
44456;SDS011;30159;49.316;8.558;2022-12-18T08:23:17;24.07;;;9.57;;
44456;SDS011;30159;49.316;8.558;2022-12-18T08:25:44;22.57;;;7.40;;
44456;SDS011;30159;49.316;8.558;2022-12-18T08:28:11;37.30;;;13.37;;
44456;SDS011;30159;49.316;8.558;2022-12-18T08:30:38;30.27;;;12.67;;
44456;SDS011;30159;49.316;8.558;2022-12-18T08:33:06;34.33;;;13.57;;
44456;SDS011;30159;49.316;8.558;2022-12-18T08:35:34;39.73;;;15.30;;
44456;SDS011;30159;49.316;8.558;2022-12-18T08:38:01;23.43;;;12.77;;
44456;SDS011;30159;49.316;8.558;2022-12-18T08:40:28;21.97;;;11.70;;
44456;SDS011;30159;49.316;8.558;2022-12-18T08:42:54;25.57;;;11.57;;
44456;SDS011;30159;49.316;8.558;2022-12-18T08:45:38;34.83;;;12.83;;
44456;SDS011;30159;49.316;8.558;2022-12-18T08:48:06;30.13;;;14.37;;
44456;SDS011;30159;49.316;8.558;2022-12-18T08:50:33;32.00;;;16.33;;
44456;SDS011;30159;49.316;8.558;2022-12-18T08:53:00;41.57;;;16.63;;
44456;SDS011;30159;49.316;8.558;2022-12-18T08:55:27;33.83;;;15.20;;
44456;SDS011;30159;49.316;8.558;2022-12-18T08:57:53;28.13;;;12.60;;
44456;SDS011;30159;49.316;8.558;2022-12-18T09:00:20;28.30;;;14.60;;
44456;SDS011;30159;49.316;8.558;2022-12-18T09:02:46;40.20;;;14.20;;
44456;SDS011;30159;49.316;8.558;2022-12-18T09:05:14;34.47;;;14.03;;
44456;SDS011;30159;49.316;8.558;2022-12-18T09:07:41;39.00;;;16.20;;
44456;SDS011;30159;49.316;8.558;2022-12-18T09:10:08;34.37;;;12.50;;
44456;SDS011;30159;49.316;8.558;2022-12-18T09:12:35;27.07;;;13.87;;
44456;SDS011;30159;49.316;8.558;2022-12-18T09:15:01;29.47;;;14.47;;
44456;SDS011;30159;49.316;8.558;2022-12-18T09:17:28;20.20;;;10.40;;
44456;SDS011;30159;49.316;8.558;2022-12-18T09:19:54;29.90;;;13.40;;
44456;SDS011;30159;49.316;8.558;2022-12-18T09:22:22;47.33;;;16.10;;
44456;SDS011;30159;49.316;8.558;2022-12-18T09:24:49;38.60;;;15.47;;
44456;SDS011;30159;49.316;8.558;2022-12-18T09:27:15;50.27;;;15.87;;
44456;SDS011;30159;49.316;8.558;2022-12-18T09:29:42;36.67;;;14.83;;
44456;SDS011;30159;49.316;8.558;2022-12-18T09:32:08;31.80;;;13.70;;
44456;SDS011;30159;49.316;8.558;2022-12-18T09:34:35;32.50;;;13.60;;
44456;SDS011;30159;49.316;8.558;2022-12-18T09:37:01;43.33;;;18.90;;
44456;SDS011;30159;49.316;8.558;2022-12-18T09:39:29;41.83;;;16.73;;
44456;SDS011;30159;49.316;8.558;2022-12-18T09:41:57;36.53;;;16.47;;
44456;SDS011;30159;49.316;8.558;2022-12-18T09:44:24;37.30;;;16.30;;
44456;SDS011;30159;49.316;8.558;2022-12-18T09:46:59;46.43;;;18.73;;
44456;SDS011;30159;49.316;8.558;2022-12-18T09:49:35;40.50;;;16.00;;
44456;SDS011;30159;49.316;8.558;2022-12-18T09:52:08;41.70;;;17.90;;
44456;SDS011;30159;49.316;8.558;2022-12-18T09:54:40;44.17;;;15.77;;
44456;SDS011;30159;49.316;8.558;2022-12-18T09:57:12;36.03;;;14.07;;
44456;SDS011;30159;49.316;8.558;2022-12-18T09:59:40;30.07;;;14.60;;
44456;SDS011;30159;49.316;8.558;2022-12-18T10:02:14;32.43;;;15.80;;
44456;SDS011;30159;49.316;8.558;2022-12-18T10:04:42;38.13;;;17.07;;
44456;SDS011;30159;49.316;8.558;2022-12-18T10:07:11;40.40;;;16.10;;
44456;SDS011;30159;49.316;8.558;2022-12-18T10:09:43;37.70;;;15.63;;
44456;SDS011;30159;49.316;8.558;2022-12-18T10:12:17;38.63;;;16.47;;
44456;SDS011;30159;49.316;8.558;2022-12-18T10:14:50;43.90;;;15.73;;
44456;SDS011;30159;49.316;8.558;2022-12-18T10:17:24;28.27;;;15.30;;
44456;SDS011;30159;49.316;8.558;2022-12-18T10:19:56;38.87;;;15.33;;
44456;SDS011;30159;49.316;8.558;2022-12-18T10:22:35;36.00;;;15.17;;
44456;SDS011;30159;49.316;8.558;2022-12-18T10:25:15;36.53;;;14.77;;
44456;SDS011;30159;49.316;8.558;2022-12-18T10:27:47;41.17;;;16.50;;
44456;SDS011;30159;49.316;8.558;2022-12-18T10:30:19;40.57;;;17.17;;
44456;SDS011;30159;49.316;8.558;2022-12-18T10:32:47;39.77;;;16.97;;
44456;SDS011;30159;49.316;8.558;2022-12-18T10:35:15;34.37;;;10.67;;
44456;SDS011;30159;49.316;8.558;2022-12-18T10:40:52;31.43;;;12.97;;
44456;SDS011;30159;49.316;8.558;2022-12-18T10:43:21;36.50;;;13.87;;
44456;SDS011;30159;49.316;8.558;2022-12-18T10:45:57;39.27;;;14.43;;
44456;SDS011;30159;49.316;8.558;2022-12-18T10:48:26;36.07;;;15.83;;
44456;SDS011;30159;49.316;8.558;2022-12-18T10:50:53;38.33;;;16.30;;
44456;SDS011;30159;49.316;8.558;2022-12-18T10:53:21;37.83;;;14.37;;
44456;SDS011;30159;49.316;8.558;2022-12-18T10:55:51;46.17;;;14.97;;
44456;SDS011;30159;49.316;8.558;2022-12-18T10:58:21;46.77;;;16.30;;
44456;SDS011;30159;49.316;8.558;2022-12-18T11:01:09;27.37;;;11.83;;
44456;SDS011;30159;49.316;8.558;2022-12-18T11:03:37;36.13;;;14.07;;
44456;SDS011;30159;49.316;8.558;2022-12-18T11:06:07;35.57;;;13.40;;
44456;SDS011;30159;49.316;8.558;2022-12-18T11:08:35;30.50;;;13.80;;
44456;SDS011;30159;49.316;8.558;2022-12-18T11:11:04;39.43;;;16.17;;
44456;SDS011;30159;49.316;8.558;2022-12-18T11:13:41;39.67;;;15.13;;
44456;SDS011;30159;49.316;8.558;2022-12-18T11:16:18;35.10;;;15.60;;
44456;SDS011;30159;49.316;8.558;2022-12-18T11:18:45;41.33;;;16.50;;
44456;SDS011;30159;49.316;8.558;2022-12-18T11:21:11;42.60;;;15.80;;
44456;SDS011;30159;49.316;8.558;2022-12-18T11:23:44;30.60;;;14.80;;
44456;SDS011;30159;49.316;8.558;2022-12-18T11:26:14;32.10;;;15.37;;
44456;SDS011;30159;49.316;8.558;2022-12-18T11:28:41;40.17;;;14.47;;
44456;SDS011;30159;49.316;8.558;2022-12-18T11:31:17;39.20;;;14.93;;
44456;SDS011;30159;49.316;8.558;2022-12-18T11:33:47;34.00;;;13.83;;
44456;SDS011;30159;49.316;8.558;2022-12-18T11:36:20;24.47;;;10.87;;
44456;SDS011;30159;49.316;8.558;2022-12-18T11:38:48;33.57;;;14.23;;
44456;SDS011;30159;49.316;8.558;2022-12-18T11:41:21;34.00;;;15.53;;
44456;SDS011;30159;49.316;8.558;2022-12-18T11:44:14;29.60;;;12.60;;
44456;SDS011;30159;49.316;8.558;2022-12-18T11:46:47;43.27;;;14.97;;
44456;SDS011;30159;49.316;8.558;2022-12-18T11:49:18;23.20;;;11.60;;
44456;SDS011;30159;49.316;8.558;2022-12-18T11:51:50;36.23;;;15.43;;
44456;SDS011;30159;49.316;8.558;2022-12-18T11:54:22;32.80;;;14.43;;
44456;SDS011;30159;49.316;8.558;2022-12-18T11:56:51;31.67;;;14.33;;
44456;SDS011;30159;49.316;8.558;2022-12-18T11:59:24;34.13;;;14.77;;
44456;SDS011;30159;49.316;8.558;2022-12-18T12:01:59;33.60;;;14.00;;
44456;SDS011;30159;49.316;8.558;2022-12-18T12:04:48;39.93;;;14.00;;
44456;SDS011;30159;49.316;8.558;2022-12-18T12:07:29;33.10;;;13.80;;
44456;SDS011;30159;49.316;8.558;2022-12-18T12:10:08;30.23;;;13.50;;
44456;SDS011;30159;49.316;8.558;2022-12-18T12:12:52;31.57;;;13.70;;
44456;SDS011;30159;49.316;8.558;2022-12-18T12:15:32;37.63;;;15.93;;
44456;SDS011;30159;49.316;8.558;2022-12-18T12:18:06;33.37;;;13.17;;
44456;SDS011;30159;49.316;8.558;2022-12-18T12:20:45;32.40;;;13.80;;
44456;SDS011;30159;49.316;8.558;2022-12-18T12:23:20;28.77;;;12.70;;
44456;SDS011;30159;49.316;8.558;2022-12-18T12:25:56;38.27;;;13.67;;
44456;SDS011;30159;49.316;8.558;2022-12-18T12:28:37;34.20;;;14.03;;
44456;SDS011;30159;49.316;8.558;2022-12-18T12:31:19;29.20;;;13.23;;
44456;SDS011;30159;49.316;8.558;2022-12-18T12:33:56;36.43;;;14.33;;
44456;SDS011;30159;49.316;8.558;2022-12-18T12:36:32;33.97;;;14.20;;
44456;SDS011;30159;49.316;8.558;2022-12-18T12:39:10;25.73;;;11.27;;
44456;SDS011;30159;49.316;8.558;2022-12-18T12:41:39;33.93;;;13.53;;
44456;SDS011;30159;49.316;8.558;2022-12-18T12:44:34;24.53;;;12.23;;
44456;SDS011;30159;49.316;8.558;2022-12-18T12:47:07;39.53;;;15.37;;
44456;SDS011;30159;49.316;8.558;2022-12-18T12:49:40;34.13;;;15.27;;
44456;SDS011;30159;49.316;8.558;2022-12-18T12:52:13;32.23;;;12.97;;
44456;SDS011;30159;49.316;8.558;2022-12-18T12:54:43;29.00;;;13.50;;
44456;SDS011;30159;49.316;8.558;2022-12-18T12:57:12;39.43;;;13.93;;
44456;SDS011;30159;49.316;8.558;2022-12-18T12:59:45;33.57;;;13.80;;
44456;SDS011;30159;49.316;8.558;2022-12-18T13:02:18;31.67;;;12.40;;
44456;SDS011;30159;49.316;8.558;2022-12-18T13:04:52;33.87;;;13.80;;
44456;SDS011;30159;49.316;8.558;2022-12-18T13:07:27;36.83;;;14.10;;
44456;SDS011;30159;49.316;8.558;2022-12-18T13:10:12;28.90;;;12.40;;
44456;SDS011;30159;49.316;8.558;2022-12-18T13:12:52;34.40;;;13.97;;
44456;SDS011;30159;49.316;8.558;2022-12-18T13:15:24;42.33;;;15.20;;
44456;SDS011;30159;49.316;8.558;2022-12-18T13:20:46;32.47;;;13.70;;
44456;SDS011;30159;49.316;8.558;2022-12-18T13:23:28;34.33;;;14.87;;
44456;SDS011;30159;49.316;8.558;2022-12-18T13:25:57;28.97;;;13.20;;
44456;SDS011;30159;49.316;8.558;2022-12-18T13:34:36;29.57;;;13.23;;
44456;SDS011;30159;49.316;8.558;2022-12-18T13:43:30;30.53;;;13.27;;
44456;SDS011;30159;49.316;8.558;2022-12-18T13:46:01;33.33;;;14.97;;
44456;SDS011;30159;49.316;8.558;2022-12-18T13:48:43;39.23;;;14.03;;
44456;SDS011;30159;49.316;8.558;2022-12-18T13:51:18;35.77;;;14.63;;
44456;SDS011;30159;49.316;8.558;2022-12-18T13:53:47;29.50;;;14.37;;
44456;SDS011;30159;49.316;8.558;2022-12-18T13:56:16;41.50;;;16.33;;
44456;SDS011;30159;49.316;8.558;2022-12-18T13:58:45;34.27;;;14.57;;
44456;SDS011;30159;49.316;8.558;2022-12-18T14:04:08;35.17;;;13.40;;
44456;SDS011;30159;49.316;8.558;2022-12-18T14:06:37;31.57;;;13.50;;
44456;SDS011;30159;49.316;8.558;2022-12-18T14:09:04;33.07;;;13.90;;
44456;SDS011;30159;49.316;8.558;2022-12-18T14:11:31;37.20;;;16.47;;
44456;SDS011;30159;49.316;8.558;2022-12-18T14:13:58;34.53;;;13.67;;
44456;SDS011;30159;49.316;8.558;2022-12-18T14:16:25;32.57;;;15.17;;
44456;SDS011;30159;49.316;8.558;2022-12-18T14:18:52;35.47;;;15.40;;
44456;SDS011;30159;49.316;8.558;2022-12-18T14:21:21;40.43;;;14.03;;
44456;SDS011;30159;49.316;8.558;2022-12-18T14:24:04;36.00;;;12.60;;
44456;SDS011;30159;49.316;8.558;2022-12-18T14:26:32;27.00;;;12.57;;
44456;SDS011;30159;49.316;8.558;2022-12-18T14:29:00;28.60;;;13.20;;
44456;SDS011;30159;49.316;8.558;2022-12-18T14:31:28;35.80;;;15.33;;
44456;SDS011;30159;49.316;8.558;2022-12-18T14:33:56;36.03;;;16.00;;
44456;SDS011;30159;49.316;8.558;2022-12-18T14:36:23;35.53;;;13.73;;
44456;SDS011;30159;49.316;8.558;2022-12-18T14:38:52;32.07;;;15.13;;
44456;SDS011;30159;49.316;8.558;2022-12-18T14:41:21;42.37;;;13.47;;
44456;SDS011;30159;49.316;8.558;2022-12-18T14:43:49;41.97;;;15.50;;
44456;SDS011;30159;49.316;8.558;2022-12-18T14:46:30;31.67;;;14.60;;
44456;SDS011;30159;49.316;8.558;2022-12-18T14:49:02;30.67;;;14.03;;
44456;SDS011;30159;49.316;8.558;2022-12-18T14:51:30;32.23;;;13.90;;
44456;SDS011;30159;49.316;8.558;2022-12-18T14:53:59;47.07;;;17.10;;
44456;SDS011;30159;49.316;8.558;2022-12-18T14:56:29;31.90;;;14.47;;
44456;SDS011;30159;49.316;8.558;2022-12-18T14:58:57;41.67;;;15.20;;